createdAt,value
2019-01-05T00:01:27.986Z,51.30
2019-01-05T00:06:02.804Z,51.30
2019-01-05T00:08:38.492Z,51.40
2019-01-05T00:11:11.464Z,51.40
2019-01-05T00:14:17.953Z,51.30
2019-01-05T00:16:51.593Z,51.40
2019-01-05T00:19:59.353Z,51.50
2019-01-05T00:22:32.125Z,51.50
2019-01-05T00:25:05.061Z,51.50
2019-01-05T00:27:37.958Z,51.40
2019-01-05T00:30:14.721Z,51.50
2019-01-05T00:32:48.427Z,51.50
2019-01-05T00:35:26.477Z,51.60
2019-01-05T00:37:59.402Z,51.50
2019-01-05T00:40:31.164Z,51.60
2019-01-05T00:43:02.988Z,51.60
2019-01-05T00:45:35.732Z,51.60
2019-01-05T00:48:08.408Z,51.50
2019-01-05T00:50:40.145Z,51.60
2019-01-05T00:53:11.895Z,51.60
2019-01-05T00:55:46.524Z,51.70
2019-01-05T00:58:20.112Z,51.70
2019-01-05T01:02:53.764Z,51.70
2019-01-05T01:05:29.369Z,51.70
2019-01-05T01:08:19.029Z,51.70
2019-01-05T01:10:55.629Z,51.80
2019-01-05T01:13:28.151Z,51.80
2019-01-05T01:16:00.935Z,51.80
2019-01-05T01:18:32.677Z,51.80
2019-01-05T01:21:04.414Z,51.80
2019-01-05T01:23:40.034Z,51.80
2019-01-05T01:26:13.545Z,51.80
2019-01-05T01:29:06.103Z,51.80
2019-01-05T01:31:43.640Z,51.80
2019-01-05T01:34:16.513Z,51.90
2019-01-05T01:36:50.199Z,51.80
2019-01-05T01:39:27.329Z,51.80
2019-01-05T01:43:07.029Z,51.80
2019-01-05T01:45:39.892Z,51.80
2019-01-05T01:48:12.801Z,51.90
2019-01-05T01:50:45.679Z,51.90
2019-01-05T01:54:17.000Z,51.90
2019-01-05T01:56:51.658Z,52.00
2019-01-05T01:59:32.102Z,52.00
2019-01-05T02:02:08.059Z,52.00
2019-01-05T02:04:46.022Z,52.00
2019-01-05T02:07:22.688Z,52.00
2019-01-05T02:09:55.585Z,52.00
2019-01-05T02:12:27.393Z,52.00
2019-01-05T02:15:02.901Z,52.00
2019-01-05T02:17:43.979Z,52.10
2019-01-05T02:20:25.121Z,52.10
2019-01-05T02:23:13.376Z,52.10
2019-01-05T02:27:03.580Z,52.10
2019-01-05T02:29:50.565Z,52.10
2019-01-05T02:32:44.232Z,52.20
2019-01-05T02:35:33.808Z,52.10
2019-01-05T02:38:16.752Z,52.20
2019-01-05T02:41:30.267Z,52.20
2019-01-05T02:44:20.849Z,52.20
2019-01-05T02:47:23.166Z,52.90
2019-01-05T02:50:16.938Z,52.30
2019-01-05T02:53:07.757Z,52.30
2019-01-05T02:55:56.460Z,52.20
2019-01-05T02:59:14.210Z,52.30
2019-01-05T03:01:56.146Z,52.30
2019-01-05T03:04:45.368Z,52.30
2019-01-05T03:09:34.566Z,52.40
2019-01-05T03:12:30.026Z,52.30
2019-01-05T03:15:15.690Z,52.30
2019-01-05T03:18:17.432Z,52.50
2019-01-05T03:25:23.693Z,52.50
2019-01-05T03:28:13.837Z,52.40
2019-01-05T03:31:12.402Z,52.50
2019-01-05T03:34:33.454Z,52.50
2019-01-05T03:39:23.284Z,52.60
2019-01-05T03:42:15.849Z,52.50
2019-01-05T03:45:03.773Z,52.50
2019-01-05T03:48:00.258Z,52.60
2019-01-05T03:50:43.042Z,52.60
2019-01-05T03:53:26.145Z,52.60
2019-01-05T03:56:08.303Z,52.60
2019-01-05T04:01:09.031Z,52.60
2019-01-05T04:04:41.947Z,52.60
2019-01-05T04:07:27.818Z,52.60
2019-01-05T04:10:17.913Z,52.80
2019-01-05T04:13:37.878Z,52.80
2019-01-05T04:16:27.959Z,52.80
2019-01-05T04:19:21.651Z,52.80
2019-01-05T04:22:09.614Z,52.80
2019-01-05T04:24:54.452Z,52.80
2019-01-05T04:29:46.333Z,52.90
2019-01-05T04:34:35.417Z,52.80
2019-01-05T04:37:19.909Z,52.90
2019-01-05T04:41:05.565Z,52.90
2019-01-05T04:45:50.420Z,53.00
2019-01-05T04:50:36.486Z,53.00
2019-01-05T04:55:43.436Z,53.00
2019-01-05T05:02:34.769Z,53.00
2019-01-05T05:05:22.651Z,53.10
2019-01-05T05:08:13.655Z,53.10
2019-01-05T05:15:20.214Z,53.20
2019-01-05T05:18:13.166Z,53.20
2019-01-05T05:21:01.584Z,53.10
2019-01-05T05:25:50.993Z,53.10
2019-01-05T05:28:35.366Z,53.20
2019-01-05T05:31:25.122Z,53.30
2019-01-05T05:34:12.953Z,53.20
2019-01-05T05:37:09.004Z,53.30
2019-01-05T05:39:51.210Z,53.30
2019-01-05T05:42:38.259Z,53.30
2019-01-05T05:45:44.765Z,53.30
2019-01-05T05:51:04.898Z,53.30
2019-01-05T05:53:52.997Z,53.30
2019-01-05T05:56:41.797Z,53.30
2019-01-05T06:01:32.012Z,53.40
2019-01-05T06:04:16.498Z,53.40
2019-01-05T06:09:06.034Z,53.50
2019-01-05T06:12:39.014Z,53.40
2019-01-05T06:17:29.005Z,53.50
2019-01-05T06:20:14.108Z,53.40
2019-01-05T06:23:01.445Z,53.50
2019-01-05T06:27:58.597Z,53.50
2019-01-05T06:31:44.645Z,53.60
2019-01-05T06:34:32.690Z,53.50
2019-01-05T06:37:16.647Z,53.50
2019-01-05T06:40:31.618Z,53.60
2019-01-05T06:43:20.669Z,53.60
2019-01-05T06:46:04.329Z,53.60
2019-01-05T06:48:49.400Z,53.60
2019-01-05T06:51:36.058Z,53.60
2019-01-05T06:54:30.565Z,53.60
2019-01-05T07:01:16.853Z,53.70
2019-01-05T07:04:00.795Z,53.70
2019-01-05T07:06:50.704Z,53.60
2019-01-05T07:09:40.336Z,53.70
2019-01-05T07:12:25.931Z,53.70
2019-01-05T07:15:13.773Z,53.60
2019-01-05T07:20:03.752Z,53.70
2019-01-05T07:22:52.930Z,53.70
2019-01-05T07:25:47.830Z,53.70
2019-01-05T07:28:37.138Z,53.70
2019-01-05T07:31:26.589Z,53.70
2019-01-05T07:34:15.343Z,53.80
2019-01-05T07:37:01.396Z,53.70
2019-01-05T07:39:47.471Z,53.80
2019-01-05T07:42:37.456Z,54.30
2019-01-05T07:45:30.941Z,53.80
2019-01-05T07:48:29.068Z,53.80
2019-01-05T07:51:14.968Z,53.90
2019-01-05T07:54:04.109Z,53.80
2019-01-05T07:56:53.312Z,53.90
2019-01-05T08:01:45.484Z,53.80
2019-01-05T08:06:38.502Z,53.80
2019-01-05T08:09:26.862Z,53.90
2019-01-05T08:12:16.431Z,53.90
2019-01-05T08:15:02.254Z,53.90
2019-01-05T08:18:02.135Z,53.90
2019-01-05T08:22:49.697Z,53.80
2019-01-05T08:25:33.822Z,53.80
2019-01-05T08:30:23.297Z,53.90
2019-01-05T08:33:15.886Z,53.90
2019-01-05T08:35:58.663Z,53.90
2019-01-05T08:38:51.397Z,53.80
2019-01-05T08:41:37.857Z,53.90
2019-01-05T08:44:32.596Z,53.90
2019-01-05T08:47:13.095Z,54.00
2019-01-05T08:50:15.861Z,54.00
2019-01-05T08:53:07.725Z,54.50
2019-01-05T08:55:56.221Z,54.00
2019-01-05T08:58:44.708Z,54.00
2019-01-05T09:01:35.675Z,53.90
2019-01-05T09:06:28.446Z,53.90
2019-01-05T09:11:14.790Z,53.90
2019-01-05T09:14:11.660Z,54.00
2019-01-05T09:19:04.861Z,54.00
2019-01-05T09:21:55.626Z,53.90
2019-01-05T09:26:01.493Z,54.00
2019-01-05T09:30:55.673Z,53.90
2019-01-05T09:33:40.253Z,54.00
2019-01-05T09:36:28.486Z,54.00
2019-01-05T09:39:10.888Z,54.00
2019-01-05T09:45:04.899Z,54.00
2019-01-05T09:49:51.128Z,54.00
2019-01-05T09:52:35.616Z,54.00
2019-01-05T09:59:26.820Z,54.00
2019-01-05T10:02:35.532Z,54.00
2019-01-05T10:07:27.445Z,54.00
2019-01-05T10:10:11.389Z,53.90
2019-01-05T10:12:55.381Z,53.90
2019-01-05T10:15:39.578Z,54.00
2019-01-05T10:18:28.336Z,54.00
2019-01-05T10:21:12.152Z,54.00
2019-01-05T10:23:54.966Z,53.90
2019-01-05T10:28:42.366Z,53.90
2019-01-05T10:33:35.705Z,53.90
2019-01-05T10:36:22.008Z,53.90
2019-01-05T10:40:08.824Z,53.90
2019-01-05T10:43:58.841Z,53.90
2019-01-05T10:48:44.208Z,53.90
2019-01-05T10:53:28.261Z,53.90
2019-01-05T10:56:21.221Z,53.90
2019-01-05T10:59:08.926Z,53.90
2019-01-05T11:01:51.809Z,53.90
2019-01-05T11:04:47.641Z,53.90
2019-01-05T11:07:30.528Z,53.90
2019-01-05T11:10:14.792Z,53.80
2019-01-05T11:13:04.652Z,53.80
2019-01-05T11:15:51.797Z,53.80
2019-01-05T11:20:42.733Z,53.90
2019-01-05T11:23:37.676Z,53.90
2019-01-05T11:26:28.488Z,53.90
2019-01-05T11:29:21.216Z,53.90
2019-01-05T11:34:13.882Z,53.90
2019-01-05T11:36:58.944Z,53.90
2019-01-05T11:40:05.578Z,53.90
2019-01-05T11:43:09.314Z,53.90
2019-01-05T11:46:24.143Z,53.90
2019-01-05T11:49:24.027Z,53.90
2019-01-05T11:52:14.503Z,53.90
2019-01-05T11:55:05.283Z,54.50
2019-01-05T11:59:57.361Z,53.90
2019-01-05T12:04:42.218Z,53.90
2019-01-05T12:07:34.014Z,53.90
2019-01-05T12:10:20.298Z,53.90
2019-01-05T12:13:33.160Z,53.90
2019-01-05T12:16:19.121Z,54.00
2019-01-05T12:19:08.004Z,53.90
2019-01-05T12:21:53.313Z,53.90
2019-01-05T12:24:41.121Z,53.80
2019-01-05T12:31:34.085Z,53.90
2019-01-05T12:34:21.205Z,53.90
2019-01-05T12:37:04.090Z,53.90
2019-01-05T12:39:51.020Z,53.90
2019-01-05T12:42:35.394Z,53.90
2019-01-05T12:45:19.829Z,54.00
2019-01-05T12:48:22.808Z,53.90
2019-01-05T12:51:24.680Z,53.90
2019-01-05T12:54:11.885Z,53.80
2019-01-05T12:56:59.106Z,53.90
2019-01-05T12:59:51.046Z,53.90
2019-01-05T13:02:38.349Z,53.90
2019-01-05T13:05:21.720Z,54.00
2019-01-05T13:08:10.403Z,53.80
2019-01-05T13:10:54.421Z,53.80
2019-01-05T13:13:42.337Z,53.80
2019-01-05T13:16:32.573Z,53.90
2019-01-05T13:21:34.356Z,54.00
2019-01-05T13:24:20.355Z,54.10
2019-01-05T13:27:32.023Z,54.00
2019-01-05T13:30:18.039Z,54.20
2019-01-05T13:35:11.837Z,54.10
2019-01-05T13:37:59.746Z,54.00
2019-01-05T13:44:57.924Z,54.00
2019-01-05T13:47:41.207Z,54.00
2019-01-05T13:50:21.873Z,54.10
2019-01-05T13:53:31.931Z,54.00
2019-01-05T13:56:15.101Z,54.00
2019-01-05T13:58:48.093Z,54.10
2019-01-05T14:01:23.805Z,54.10
2019-01-05T14:03:56.638Z,54.00
2019-01-05T14:06:29.121Z,54.20
2019-01-05T14:09:02.654Z,54.20
2019-01-05T14:11:37.339Z,54.30
2019-01-05T14:14:10.020Z,54.30
2019-01-05T14:16:42.653Z,54.30
2019-01-05T14:19:15.457Z,54.40
2019-01-05T14:23:50.266Z,54.70
2019-01-05T14:26:23.133Z,54.70
2019-01-05T14:28:55.980Z,54.80
2019-01-05T14:31:33.666Z,55.00
2019-01-05T14:34:06.381Z,54.70
2019-01-05T14:37:17.697Z,54.80
2019-01-05T14:39:49.433Z,54.80
2019-01-05T14:42:28.142Z,54.90
2019-01-05T14:45:33.758Z,54.80
2019-01-05T14:48:08.438Z,54.70
2019-01-05T14:50:40.986Z,54.70
2019-01-05T14:53:12.714Z,54.80
2019-01-05T14:55:45.645Z,54.70
2019-01-05T14:58:18.478Z,54.70
2019-01-05T15:02:53.207Z,54.60
2019-01-05T15:05:28.892Z,54.70
2019-01-05T15:08:01.666Z,54.60
2019-01-05T15:10:34.569Z,54.50
2019-01-05T15:13:07.445Z,54.50
2019-01-05T15:15:40.344Z,54.50
2019-01-05T15:20:15.235Z,54.50
2019-01-05T15:23:05.932Z,54.50
2019-01-05T15:25:38.827Z,54.50
2019-01-05T15:28:11.556Z,54.40
2019-01-05T15:31:16.374Z,54.40
2019-01-05T15:33:52.028Z,54.30
2019-01-05T15:36:24.854Z,54.30
2019-01-05T15:38:57.784Z,54.30
2019-01-05T15:41:31.463Z,54.30
2019-01-05T15:46:11.177Z,54.30
2019-01-05T15:48:43.857Z,54.30
2019-01-05T15:51:16.478Z,54.20
2019-01-05T15:53:49.039Z,54.20
2019-01-05T15:56:21.714Z,54.20
2019-01-05T15:58:54.596Z,54.20
2019-01-05T16:01:30.302Z,54.20
2019-01-05T16:04:03.845Z,54.20
2019-01-05T16:06:40.593Z,54.20
2019-01-05T16:09:13.125Z,54.20
2019-01-05T16:11:45.849Z,54.20
2019-01-05T16:14:18.777Z,54.20
2019-01-05T16:16:51.693Z,54.20
2019-01-05T16:19:27.357Z,54.20
2019-01-05T16:21:59.920Z,54.20
2019-01-05T16:24:32.648Z,54.10
2019-01-05T16:27:05.413Z,54.20
2019-01-05T16:29:43.704Z,54.10
2019-01-05T16:32:16.338Z,54.10
2019-01-05T16:34:49.118Z,54.20
2019-01-05T16:37:22.030Z,54.20
2019-01-05T16:40:25.697Z,54.10
2019-01-05T16:42:57.410Z,54.20
2019-01-05T16:45:30.087Z,54.10
2019-01-05T16:48:05.726Z,54.10
2019-01-05T16:50:37.446Z,54.00
2019-01-05T16:53:09.202Z,54.10
2019-01-05T16:55:40.933Z,54.10
2019-01-05T16:58:13.512Z,54.10
2019-01-05T17:02:48.251Z,54.20
2019-01-05T17:05:25.897Z,54.10
2019-01-05T17:07:59.581Z,54.10
2019-01-05T17:10:32.354Z,54.10
2019-01-05T17:13:07.995Z,54.10
2019-01-05T17:15:41.529Z,54.10
2019-01-05T17:18:14.412Z,54.10
2019-01-05T17:20:49.039Z,54.10
2019-01-05T17:23:20.753Z,54.10
2019-01-05T17:25:53.601Z,54.10
2019-01-05T17:28:25.323Z,54.10
2019-01-05T17:31:03.046Z,54.10
2019-01-05T17:33:35.820Z,54.10
2019-01-05T17:36:10.459Z,54.10
2019-01-05T17:38:45.110Z,54.10
2019-01-05T17:41:19.712Z,54.00
2019-01-05T17:43:52.527Z,54.10
2019-01-05T17:46:25.465Z,54.00
2019-01-05T17:48:58.322Z,54.00
2019-01-05T17:51:30.945Z,54.00
2019-01-05T17:54:03.715Z,54.00
2019-01-05T17:58:38.440Z,54.00
2019-01-05T18:01:15.080Z,54.00
2019-01-05T18:03:48.732Z,54.00
2019-01-05T18:06:21.624Z,54.00
2019-01-05T18:08:58.290Z,54.00
2019-01-05T18:11:31.248Z,53.90
2019-01-05T18:14:04.062Z,53.90
2019-01-05T18:16:38.764Z,54.00
2019-01-05T18:19:10.494Z,53.90
2019-01-05T18:21:43.216Z,53.90
2019-01-05T18:24:15.913Z,53.90
2019-01-05T18:26:48.695Z,53.90
2019-01-05T18:29:21.390Z,53.90
2019-01-05T18:33:55.262Z,53.90
2019-01-05T18:36:30.973Z,53.90
2019-01-05T18:39:06.539Z,53.80
2019-01-05T18:41:43.062Z,53.80
2019-01-05T18:45:17.676Z,53.80
2019-01-05T18:47:51.329Z,53.80
2019-01-05T18:50:24.216Z,53.80
2019-01-05T18:55:01.081Z,53.80
2019-01-05T18:57:33.977Z,53.70
2019-01-05T19:00:07.585Z,53.70
2019-01-05T19:02:40.605Z,53.70
2019-01-05T19:05:12.265Z,53.70
2019-01-05T19:08:17.868Z,53.70
2019-01-05T19:10:49.590Z,53.70
2019-01-05T19:13:36.114Z,53.70
2019-01-05T19:16:08.887Z,53.70
2019-01-05T19:18:43.615Z,53.60
2019-01-05T19:21:15.346Z,53.60
2019-01-05T19:23:48.147Z,53.60
2019-01-05T19:26:21.006Z,53.50
2019-01-05T19:28:52.637Z,53.50
2019-01-05T19:33:28.439Z,54.10
2019-01-05T19:36:01.345Z,53.50
2019-01-05T19:40:35.226Z,53.40
2019-01-05T19:43:09.959Z,53.40
2019-01-05T19:45:51.603Z,53.40
2019-01-05T19:48:39.174Z,53.40
2019-01-05T19:53:14.075Z,53.40
2019-01-05T19:55:48.722Z,53.30
2019-01-05T19:58:21.227Z,53.40
2019-01-05T20:00:53.712Z,53.30
2019-01-05T20:03:28.268Z,53.30
2019-01-05T20:06:03.980Z,53.30
2019-01-05T20:08:36.589Z,53.30
2019-01-05T20:11:10.258Z,53.30
2019-01-05T20:13:47.890Z,53.30
2019-01-05T20:16:19.609Z,53.30
2019-01-05T20:18:54.254Z,53.30
2019-01-05T20:21:26.962Z,53.30
2019-01-05T20:23:59.594Z,53.20
2019-01-05T20:28:33.488Z,53.20
2019-01-05T20:31:06.434Z,53.20
2019-01-05T20:33:43.092Z,53.10
2019-01-05T20:36:14.813Z,53.10
2019-01-05T20:38:46.546Z,53.10
2019-01-05T20:41:19.535Z,53.10
2019-01-05T20:45:56.486Z,53.00
2019-01-05T20:48:28.249Z,53.00
2019-01-05T20:51:07.904Z,52.90
2019-01-05T20:55:43.701Z,52.80
2019-01-05T20:58:17.420Z,52.90
2019-01-05T21:00:51.062Z,52.80
2019-01-05T21:03:22.784Z,52.80
2019-01-05T21:05:58.462Z,52.80
2019-01-05T21:08:31.287Z,52.80
2019-01-05T21:11:04.966Z,52.80
2019-01-05T21:13:37.693Z,52.70
2019-01-05T21:16:10.626Z,52.70
2019-01-05T21:18:48.105Z,52.70
2019-01-05T21:21:22.902Z,52.60
2019-01-05T21:23:59.506Z,52.50
2019-01-05T21:26:35.230Z,52.60
2019-01-05T21:29:10.790Z,52.60
2019-01-05T21:31:48.337Z,52.60
2019-01-05T21:34:20.989Z,52.60
2019-01-05T21:36:53.800Z,52.50
2019-01-05T21:39:26.717Z,52.50
2019-01-05T21:42:06.198Z,52.50
2019-01-05T21:44:39.052Z,52.50
2019-01-05T21:47:11.906Z,52.50
2019-01-05T21:49:44.765Z,52.50
2019-01-05T21:52:17.611Z,52.50
2019-01-05T21:54:50.297Z,52.50
2019-01-05T21:57:23.201Z,52.40
2019-01-05T21:59:56.869Z,52.50
2019-01-05T22:02:30.404Z,52.40
2019-01-05T22:05:03.111Z,52.50
2019-01-05T22:07:34.817Z,52.40
2019-01-05T22:10:06.562Z,52.40
2019-01-05T22:12:43.205Z,52.40
2019-01-05T22:15:16.021Z,52.40
2019-01-05T22:17:50.713Z,52.40
2019-01-05T22:20:23.420Z,52.30
2019-01-05T22:22:58.077Z,53.00
2019-01-05T22:25:30.921Z,52.30
2019-01-05T22:28:03.403Z,52.40
2019-01-05T22:30:36.057Z,52.30
2019-01-05T22:33:08.833Z,52.30
2019-01-05T22:35:41.737Z,52.30
2019-01-05T22:38:19.454Z,52.30
2019-01-05T22:40:52.168Z,52.30
2019-01-05T22:43:32.758Z,52.30
2019-01-05T22:46:04.467Z,52.30
2019-01-05T22:48:37.274Z,52.20
2019-01-05T22:51:10.984Z,52.20
2019-01-05T22:53:43.722Z,52.20
2019-01-05T22:56:18.359Z,52.20
2019-01-05T22:58:50.085Z,52.10
2019-01-05T23:01:23.638Z,52.20
2019-01-05T23:03:57.286Z,52.10
2019-01-05T23:08:35.029Z,52.20
2019-01-05T23:13:12.905Z,52.10
2019-01-05T23:15:45.789Z,52.10
2019-01-05T23:18:18.681Z,52.10
2019-01-05T23:20:51.556Z,52.10
2019-01-05T23:23:25.250Z,52.10
2019-01-05T23:25:57.780Z,52.00
2019-01-05T23:28:29.497Z,52.10
2019-01-05T23:31:02.407Z,52.00
2019-01-05T23:33:35.057Z,52.00
2019-01-05T23:36:07.988Z,52.00
2019-01-05T23:38:40.903Z,51.90
2019-01-05T23:41:16.365Z,52.00
2019-01-05T23:43:53.001Z,51.90
2019-01-05T23:48:26.853Z,52.00
2019-01-05T23:51:06.529Z,51.90
2019-01-05T23:53:38.285Z,51.90
2019-01-05T23:56:11.071Z,51.90
2019-01-05T23:58:45.796Z,51.90
